createdAt,value
2023-03-06T00:00:29.710Z,66.39
2023-03-06T00:02:57.224Z,66.05
2023-03-06T00:05:27.104Z,65.98
2023-03-06T00:07:54.495Z,65.83
2023-03-06T00:10:24.841Z,66.85
2023-03-06T00:12:53.019Z,65.42
2023-03-06T00:15:20.751Z,65.31
2023-03-06T00:17:48.189Z,65.43
2023-03-06T00:20:15.592Z,65.30
2023-03-06T00:22:43.074Z,65.44
2023-03-06T00:25:15.873Z,65.99
2023-03-06T00:27:43.000Z,66.09
2023-03-06T00:30:13.772Z,65.99
2023-03-06T00:32:43.014Z,66.19
2023-03-06T00:35:11.360Z,66.22
2023-03-06T00:37:38.923Z,65.91
2023-03-06T00:40:08.229Z,65.74
2023-03-06T00:42:35.893Z,65.59
2023-03-06T00:45:03.229Z,65.71
2023-03-06T00:47:30.413Z,65.65
2023-03-06T00:49:58.264Z,65.93
2023-03-06T00:52:25.359Z,65.36
2023-03-06T00:54:52.429Z,65.26
2023-03-06T00:57:19.823Z,65.43
2023-03-06T00:59:46.976Z,65.49
2023-03-06T01:02:14.298Z,65.33
2023-03-06T01:04:41.780Z,65.33
2023-03-06T01:07:09.012Z,65.62
2023-03-06T01:09:36.320Z,65.59
2023-03-06T01:12:03.855Z,65.05
2023-03-06T01:14:31.983Z,64.70
2023-03-06T01:16:59.189Z,64.95
2023-03-06T01:19:26.696Z,64.96
2023-03-06T01:21:53.839Z,65.16
2023-03-06T01:24:20.957Z,65.09
2023-03-06T01:26:48.343Z,65.17
2023-03-06T01:29:15.450Z,65.54
2023-03-06T01:31:42.919Z,65.21
2023-03-06T01:34:10.334Z,65.43
2023-03-06T01:36:37.705Z,65.99
2023-03-06T01:39:05.030Z,66.49
2023-03-06T01:41:32.965Z,66.67
2023-03-06T01:44:00.194Z,66.65
2023-03-06T01:46:33.747Z,66.21
2023-03-06T01:49:05.615Z,65.59
2023-03-06T01:51:37.831Z,65.29
2023-03-06T01:54:09.177Z,65.34
2023-03-06T01:56:36.780Z,65.62
2023-03-06T01:59:04.648Z,65.46
2023-03-06T02:01:32.189Z,65.42
2023-03-06T02:04:00.724Z,65.46
2023-03-06T02:06:28.904Z,65.97
2023-03-06T02:08:56.100Z,65.69
2023-03-06T02:11:25.139Z,65.78
2023-03-06T02:13:54.081Z,66.05
2023-03-06T02:16:25.557Z,66.46
2023-03-06T02:18:53.199Z,66.50
2023-03-06T02:21:28.397Z,66.67
2023-03-06T02:24:32.349Z,66.72
2023-03-06T02:27:01.072Z,66.78
2023-03-06T02:29:29.730Z,66.88
2023-03-06T02:31:57.974Z,66.93
2023-03-06T02:34:25.530Z,66.75
2023-03-06T02:36:57.505Z,67.27
2023-03-06T02:39:27.066Z,67.19
2023-03-06T02:41:54.838Z,67.10
2023-03-06T02:44:22.960Z,66.77
2023-03-06T02:46:50.131Z,66.76
2023-03-06T02:49:17.625Z,66.92
2023-03-06T02:51:44.912Z,66.68
2023-03-06T02:54:12.469Z,67.07
2023-03-06T02:56:39.954Z,67.49
2023-03-06T02:59:07.760Z,67.34
2023-03-06T03:01:35.045Z,66.81
2023-03-06T03:04:03.335Z,66.97
2023-03-06T03:06:30.576Z,67.09
2023-03-06T03:08:57.968Z,67.21
2023-03-06T03:11:25.460Z,67.07
2023-03-06T03:13:52.658Z,67.30
2023-03-06T03:16:20.983Z,67.63
2023-03-06T03:18:50.298Z,67.88
2023-03-06T03:21:18.260Z,67.52
2023-03-06T03:23:47.140Z,67.91
2023-03-06T03:26:17.332Z,68.44
2023-03-06T03:28:45.460Z,68.69
2023-03-06T03:31:13.868Z,68.54
2023-03-06T03:33:41.703Z,68.64
2023-03-06T03:36:09.738Z,68.48
2023-03-06T03:38:38.087Z,68.36
2023-03-06T03:41:06.071Z,68.30
2023-03-06T03:43:33.365Z,69.08
2023-03-06T03:46:00.720Z,69.12
2023-03-06T03:48:28.394Z,69.27
2023-03-06T03:50:55.916Z,68.74
2023-03-06T03:53:23.660Z,68.66
2023-03-06T03:55:51.445Z,68.24
2023-03-06T03:58:19.249Z,68.93
2023-03-06T04:00:47.184Z,69.20
2023-03-06T04:03:14.887Z,69.78
2023-03-06T04:05:42.114Z,69.30
2023-03-06T04:08:09.694Z,70.28
2023-03-06T04:10:39.426Z,69.72
2023-03-06T04:13:09.580Z,70.15
2023-03-06T04:15:38.180Z,69.93
2023-03-06T04:18:05.521Z,69.54
2023-03-06T04:20:33.104Z,69.20
2023-03-06T04:23:00.770Z,68.22
2023-03-06T04:25:27.976Z,67.75
2023-03-06T04:27:55.208Z,67.15
2023-03-06T04:30:22.863Z,67.90
2023-03-06T04:32:50.513Z,68.89
2023-03-06T04:35:17.827Z,68.62
2023-03-06T04:37:45.746Z,68.59
2023-03-06T04:40:29.740Z,69.12
2023-03-06T04:42:58.327Z,68.98
2023-03-06T04:45:27.004Z,69.03
2023-03-06T04:47:54.357Z,68.58
2023-03-06T04:50:22.781Z,68.68
2023-03-06T04:52:50.294Z,69.33
2023-03-06T04:55:18.449Z,69.60
2023-03-06T04:57:47.084Z,69.46
2023-03-06T05:00:19.213Z,69.23
2023-03-06T05:02:47.425Z,69.45
2023-03-06T05:05:15.511Z,71.32
2023-03-06T05:07:43.127Z,70.27
2023-03-06T05:10:12.820Z,70.67
2023-03-06T05:12:40.154Z,70.43
2023-03-06T05:15:08.210Z,69.70
2023-03-06T05:17:35.811Z,69.08
2023-03-06T05:20:06.224Z,69.42
2023-03-06T05:22:34.473Z,67.29
2023-03-06T05:25:03.074Z,65.31
2023-03-06T05:27:30.888Z,66.70
2023-03-06T05:29:58.170Z,68.76
2023-03-06T05:32:25.706Z,68.46
2023-03-06T05:34:52.947Z,67.72
2023-03-06T05:37:20.248Z,67.79
2023-03-06T05:39:47.855Z,68.22
2023-03-06T05:42:15.067Z,67.75
2023-03-06T05:44:42.398Z,68.32
2023-03-06T05:47:10.001Z,68.37
2023-03-06T05:49:37.182Z,66.98
2023-03-06T05:52:05.294Z,66.41
2023-03-06T05:54:34.315Z,67.20
2023-03-06T05:57:02.775Z,67.61
2023-03-06T05:59:29.991Z,67.85
2023-03-06T06:01:57.600Z,68.69
2023-03-06T06:04:26.311Z,69.18
2023-03-06T06:06:58.146Z,70.24
2023-03-06T06:09:26.399Z,70.95
2023-03-06T06:12:03.728Z,69.91
2023-03-06T06:14:33.881Z,70.83
2023-03-06T06:17:01.272Z,71.24
2023-03-06T06:19:30.183Z,71.50
2023-03-06T06:21:58.602Z,71.12
2023-03-06T06:24:26.425Z,72.02
2023-03-06T06:26:55.764Z,71.42
2023-03-06T06:29:23.859Z,71.42
2023-03-06T06:31:51.504Z,71.46
2023-03-06T06:34:19.162Z,70.66
2023-03-06T06:36:46.638Z,70.07
2023-03-06T06:39:16.688Z,69.77
2023-03-06T06:41:59.487Z,69.90
2023-03-06T06:44:30.061Z,70.13
2023-03-06T06:49:50.613Z,69.55
2023-03-06T06:52:18.764Z,69.64
2023-03-06T06:54:46.447Z,69.30
2023-03-06T06:57:14.330Z,69.21
2023-03-06T06:59:41.649Z,68.62
2023-03-06T07:02:12.330Z,67.99
2023-03-06T07:04:46.368Z,67.47
2023-03-06T07:07:20.073Z,68.22
2023-03-06T07:09:47.343Z,65.10
2023-03-06T07:12:14.721Z,64.54
2023-03-06T07:14:42.414Z,62.26
2023-03-06T07:17:10.019Z,62.00
2023-03-06T07:19:38.600Z,58.82
2023-03-06T07:22:07.619Z,61.46
2023-03-06T07:24:35.126Z,61.22
2023-03-06T07:27:02.386Z,60.88
2023-03-06T07:29:32.305Z,60.21
2023-03-06T07:32:00.086Z,59.78
2023-03-06T07:34:27.293Z,59.75
2023-03-06T07:36:54.744Z,60.38
2023-03-06T07:39:22.158Z,59.13
2023-03-06T07:41:49.334Z,59.44
2023-03-06T07:44:17.343Z,59.14
2023-03-06T07:46:44.508Z,60.71
2023-03-06T07:49:11.843Z,61.39
2023-03-06T07:51:39.353Z,60.14
2023-03-06T07:54:06.507Z,61.75
2023-03-06T07:56:35.084Z,62.97
2023-03-06T07:59:02.889Z,64.85
2023-03-06T08:01:30.173Z,59.65
2023-03-06T08:03:57.816Z,60.93
2023-03-06T08:06:27.242Z,59.81
2023-03-06T08:08:56.456Z,61.47
2023-03-06T08:11:26.115Z,59.80
2023-03-06T08:13:54.956Z,61.35
2023-03-06T08:16:24.069Z,63.20
2023-03-06T08:18:51.648Z,62.92
2023-03-06T08:21:21.433Z,62.27
2023-03-06T08:23:48.810Z,61.22
2023-03-06T08:26:18.428Z,63.26
2023-03-06T08:28:46.031Z,63.19
2023-03-06T08:31:38.363Z,60.78
2023-03-06T08:34:09.066Z,60.80
2023-03-06T08:36:36.412Z,57.87
2023-03-06T08:39:04.594Z,57.71
2023-03-06T08:41:32.409Z,59.53
2023-03-06T08:43:59.492Z,59.12
2023-03-06T08:46:27.882Z,59.57
2023-03-06T08:48:55.345Z,60.07
2023-03-06T08:51:22.948Z,64.58
2023-03-06T08:53:50.798Z,63.74
2023-03-06T08:56:21.630Z,56.97
2023-03-06T08:58:49.321Z,57.69
2023-03-06T09:01:19.401Z,57.10
2023-03-06T09:03:47.251Z,66.01
2023-03-06T09:06:14.820Z,59.26
2023-03-06T09:08:43.968Z,62.96
2023-03-06T09:11:12.480Z,53.37
2023-03-06T09:13:40.057Z,63.86
2023-03-06T09:16:08.895Z,56.02
2023-03-06T09:18:36.738Z,54.09
2023-03-06T09:21:04.843Z,54.17
2023-03-06T09:23:32.753Z,56.58
2023-03-06T09:26:03.321Z,53.71
2023-03-06T09:28:30.423Z,54.43
2023-03-06T09:30:57.772Z,56.26
2023-03-06T09:33:25.605Z,58.79
2023-03-06T09:35:56.885Z,53.33
2023-03-06T09:38:27.783Z,55.82
2023-03-06T09:40:57.965Z,55.21
2023-03-06T09:43:29.515Z,58.75
2023-03-06T09:45:58.084Z,51.19
2023-03-06T09:48:44.146Z,53.89
2023-03-06T09:51:15.841Z,53.52
2023-03-06T09:53:57.425Z,53.13
2023-03-06T09:56:31.159Z,51.40
2023-03-06T09:59:12.722Z,54.44
2023-03-06T10:01:42.767Z,59.98
2023-03-06T10:04:36.394Z,52.99
2023-03-06T10:07:12.788Z,52.00
2023-03-06T10:09:54.016Z,54.79
2023-03-06T10:12:39.127Z,55.46
2023-03-06T10:15:25.897Z,53.39
2023-03-06T10:17:53.295Z,52.37
2023-03-06T10:20:24.721Z,59.36
2023-03-06T10:23:11.191Z,53.35
2023-03-06T10:25:45.597Z,55.66
2023-03-06T10:28:29.503Z,51.56
2023-03-06T10:30:56.944Z,49.00
2023-03-06T10:33:27.083Z,52.89
2023-03-06T10:35:56.260Z,54.33
2023-03-06T10:38:29.821Z,51.58
2023-03-06T10:41:12.143Z,50.24
2023-03-06T10:43:42.805Z,51.14
2023-03-06T10:46:12.501Z,49.75
2023-03-06T10:48:42.370Z,50.47
2023-03-06T10:51:21.642Z,50.59
2023-03-06T10:53:56.381Z,49.75
2023-03-06T10:56:27.677Z,51.63
2023-03-06T10:59:11.316Z,48.19
2023-03-06T11:01:40.893Z,50.11
2023-03-06T11:04:29.525Z,47.60
2023-03-06T11:07:19.384Z,55.66
2023-03-06T11:10:02.627Z,55.10
2023-03-06T11:12:57.226Z,52.53
2023-03-06T11:15:26.143Z,48.92
2023-03-06T11:18:06.147Z,51.97
2023-03-06T11:20:54.146Z,50.65
2023-03-06T11:23:42.507Z,47.28
2023-03-06T11:26:16.215Z,46.58
2023-03-06T11:28:49.602Z,47.99
2023-03-06T11:31:21.284Z,46.76
2023-03-06T11:34:27.389Z,47.04
2023-03-06T11:36:58.753Z,50.00
2023-03-06T11:39:53.288Z,48.29
2023-03-06T11:42:26.830Z,50.91
2023-03-06T11:45:01.331Z,51.89
2023-03-06T11:48:23.061Z,54.82
2023-03-06T11:50:54.082Z,48.94
2023-03-06T11:53:23.861Z,47.56
2023-03-06T11:56:00.338Z,47.91
2023-03-06T11:58:37.501Z,53.98
2023-03-06T12:01:17.477Z,51.33
2023-03-06T12:04:00.092Z,47.26
2023-03-06T12:06:42.933Z,47.32
2023-03-06T12:09:13.373Z,49.10
2023-03-06T12:12:10.783Z,44.48
2023-03-06T12:14:56.891Z,47.29
2023-03-06T12:17:49.119Z,44.81
2023-03-06T12:20:38.480Z,45.80
2023-03-06T12:23:31.045Z,45.80
2023-03-06T12:26:17.068Z,43.02
2023-03-06T12:29:28.484Z,43.27
2023-03-06T12:32:04.801Z,45.95
2023-03-06T12:34:37.936Z,45.32
2023-03-06T12:37:11.058Z,47.09
2023-03-06T12:39:41.210Z,48.04
2023-03-06T12:42:11.496Z,51.09
2023-03-06T12:44:56.319Z,44.24
2023-03-06T12:47:27.841Z,44.73
2023-03-06T12:49:59.246Z,45.57
2023-03-06T12:52:30.735Z,44.67
2023-03-06T12:55:05.032Z,43.95
2023-03-06T12:57:34.799Z,43.85
2023-03-06T13:00:02.312Z,44.33
2023-03-06T13:02:52.031Z,44.76
2023-03-06T13:05:25.839Z,48.29
2023-03-06T13:08:08.374Z,47.40
2023-03-06T13:10:37.095Z,43.43
2023-03-06T13:13:29.479Z,43.91
2023-03-06T13:16:18.349Z,45.07
2023-03-06T13:18:57.240Z,45.02
2023-03-06T13:21:56.628Z,44.39
2023-03-06T13:24:27.554Z,44.39
2023-03-06T13:27:37.954Z,44.61
2023-03-06T13:30:45.354Z,44.14
2023-03-06T13:33:37.218Z,47.63
2023-03-06T13:36:16.700Z,47.20
2023-03-06T13:38:44.098Z,49.68
2023-03-06T13:41:23.430Z,44.78
2023-03-06T13:43:55.407Z,48.51
2023-03-06T13:46:29.834Z,45.03
2023-03-06T13:49:09.252Z,44.57
2023-03-06T13:51:41.390Z,48.81
2023-03-06T13:54:31.196Z,45.70
2023-03-06T13:57:53.876Z,43.80
2023-03-06T14:00:36.378Z,44.22
2023-03-06T14:03:51.493Z,50.30
2023-03-06T14:06:40.756Z,45.16
2023-03-06T14:09:33.824Z,43.58
2023-03-06T14:12:06.970Z,46.48
2023-03-06T14:14:44.122Z,45.71
2023-03-06T14:17:39.125Z,48.33
2023-03-06T14:20:17.978Z,48.30
2023-03-06T14:22:45.129Z,47.51
2023-03-06T14:25:25.877Z,46.55
2023-03-06T14:27:54.973Z,47.90
2023-03-06T14:30:26.287Z,45.48
2023-03-06T14:32:54.912Z,45.88
2023-03-06T14:35:29.140Z,47.03
2023-03-06T14:38:01.746Z,47.62
2023-03-06T14:40:44.150Z,46.65
2023-03-06T14:43:27.783Z,46.76
2023-03-06T14:45:59.213Z,48.15
2023-03-06T14:48:38.615Z,49.90
2023-03-06T14:51:06.721Z,48.70
2023-03-06T14:53:35.028Z,47.93
2023-03-06T14:56:06.027Z,47.18
2023-03-06T14:58:42.151Z,47.22
2023-03-06T15:01:11.084Z,47.86
2023-03-06T15:03:41.508Z,48.22
2023-03-06T15:06:15.414Z,48.98
2023-03-06T15:08:43.307Z,49.02
2023-03-06T15:11:10.761Z,48.29
2023-03-06T15:13:37.992Z,50.22
2023-03-06T15:16:23.248Z,56.02
2023-03-06T15:18:59.555Z,58.55
2023-03-06T15:21:35.716Z,60.19
2023-03-06T15:24:19.427Z,66.89
2023-03-06T15:26:51.079Z,58.31
2023-03-06T15:29:23.101Z,58.19
2023-03-06T15:31:50.622Z,58.94
2023-03-06T15:34:23.421Z,60.67
2023-03-06T15:36:57.219Z,60.21
2023-03-06T15:39:36.583Z,58.82
2023-03-06T15:42:26.772Z,58.91
2023-03-06T15:44:55.736Z,59.03
2023-03-06T15:47:23.905Z,58.40
2023-03-06T15:49:53.139Z,57.42
2023-03-06T15:52:21.635Z,57.35
2023-03-06T15:54:49.145Z,56.95
2023-03-06T15:57:25.669Z,55.72
2023-03-06T15:59:53.839Z,55.13
2023-03-06T16:02:22.836Z,54.98
2023-03-06T16:04:50.790Z,55.04
2023-03-06T16:07:18.449Z,58.35
2023-03-06T16:09:45.675Z,55.29
2023-03-06T16:12:18.729Z,55.33
2023-03-06T16:14:47.668Z,56.22
2023-03-06T16:17:15.670Z,56.95
2023-03-06T16:19:43.626Z,56.80
2023-03-06T16:22:10.896Z,56.41
2023-03-06T16:24:38.594Z,55.92
2023-03-06T16:27:06.899Z,56.03
2023-03-06T16:29:35.089Z,56.71
2023-03-06T16:32:03.116Z,56.22
2023-03-06T16:34:30.386Z,58.26
2023-03-06T16:36:57.612Z,58.37
2023-03-06T16:39:25.133Z,59.12
2023-03-06T16:41:52.567Z,59.42
2023-03-06T16:44:20.623Z,60.84
2023-03-06T16:46:49.451Z,62.49
2023-03-06T16:49:18.211Z,63.13
2023-03-06T16:51:45.680Z,64.94
2023-03-06T16:54:13.527Z,68.22
2023-03-06T16:56:41.200Z,64.89
2023-03-06T16:59:08.543Z,64.17
2023-03-06T17:01:36.292Z,66.24
2023-03-06T17:04:03.819Z,65.26
2023-03-06T17:06:31.010Z,66.24
2023-03-06T17:08:59.745Z,65.12
2023-03-06T17:11:27.519Z,64.28
2023-03-06T17:13:55.406Z,64.11
2023-03-06T17:16:23.104Z,65.18
2023-03-06T17:18:50.602Z,65.51
2023-03-06T17:21:17.841Z,65.85
2023-03-06T17:23:45.812Z,65.76
2023-03-06T17:26:18.821Z,65.55
2023-03-06T17:28:46.751Z,65.51
2023-03-06T17:31:16.022Z,65.61
2023-03-06T17:33:43.739Z,65.27
2023-03-06T17:36:12.108Z,65.17
2023-03-06T17:38:39.286Z,65.70
2023-03-06T17:41:07.524Z,63.74
2023-03-06T17:43:36.770Z,64.17
2023-03-06T17:46:06.421Z,64.91
2023-03-06T17:48:33.875Z,65.42
2023-03-06T17:51:01.433Z,67.00
2023-03-06T17:53:28.618Z,68.49
2023-03-06T17:55:58.197Z,69.08
2023-03-06T17:58:27.046Z,69.15
2023-03-06T18:00:54.243Z,69.65
2023-03-06T18:03:21.848Z,70.25
2023-03-06T18:05:58.942Z,70.59
2023-03-06T18:08:26.412Z,69.24
2023-03-06T18:10:59.566Z,69.25
2023-03-06T18:13:26.983Z,68.85
2023-03-06T18:15:54.167Z,68.24
2023-03-06T18:18:21.410Z,67.84
2023-03-06T18:20:48.936Z,67.89
2023-03-06T18:23:16.129Z,67.96
2023-03-06T18:25:43.656Z,67.98
2023-03-06T18:28:11.188Z,67.78
2023-03-06T18:30:41.170Z,68.21
2023-03-06T18:33:09.170Z,68.46
2023-03-06T18:35:37.006Z,70.06
2023-03-06T18:38:04.216Z,71.03
2023-03-06T18:40:31.389Z,71.77
2023-03-06T18:42:58.882Z,72.15
2023-03-06T18:45:26.163Z,72.79
2023-03-06T18:47:54.724Z,72.59
2023-03-06T18:50:22.155Z,72.30
2023-03-06T18:52:49.315Z,71.96
2023-03-06T18:55:16.563Z,71.40
2023-03-06T18:57:44.024Z,70.14
2023-03-06T19:00:11.712Z,70.65
2023-03-06T19:02:38.915Z,70.90
2023-03-06T19:05:06.695Z,70.93
2023-03-06T19:07:33.855Z,71.13
2023-03-06T19:10:01.013Z,71.63
2023-03-06T19:12:28.485Z,71.47
2023-03-06T19:14:55.766Z,72.14
2023-03-06T19:17:24.962Z,74.23
2023-03-06T19:19:52.487Z,74.01
2023-03-06T19:22:19.653Z,74.35
2023-03-06T19:24:48.098Z,77.15
2023-03-06T19:27:15.897Z,78.54
2023-03-06T19:29:43.062Z,78.67
2023-03-06T19:32:10.475Z,78.24
2023-03-06T19:34:38.024Z,76.90
2023-03-06T19:37:05.188Z,75.63
2023-03-06T19:39:32.380Z,75.16
2023-03-06T19:41:59.865Z,74.74
2023-03-06T19:44:27.052Z,74.38
2023-03-06T19:46:54.113Z,74.48
2023-03-06T19:49:24.106Z,74.26
2023-03-06T19:51:51.338Z,75.16
2023-03-06T19:54:23.272Z,74.93
2023-03-06T19:56:51.028Z,75.60
2023-03-06T19:59:18.430Z,77.31
2023-03-06T20:01:45.656Z,77.79
2023-03-06T20:04:13.279Z,79.14
2023-03-06T20:06:40.724Z,78.55
2023-03-06T20:09:09.000Z,78.67
2023-03-06T20:11:36.717Z,78.13
2023-03-06T20:14:05.644Z,79.38
2023-03-06T20:16:33.278Z,79.21
2023-03-06T20:19:01.499Z,79.06
2023-03-06T20:21:30.568Z,79.56
2023-03-06T20:23:58.299Z,80.56
2023-03-06T20:26:27.109Z,80.97
2023-03-06T20:28:54.834Z,79.78
2023-03-06T20:31:25.143Z,79.88
2023-03-06T20:33:54.147Z,80.68
2023-03-06T20:36:24.235Z,80.71
2023-03-06T20:38:51.368Z,81.81
2023-03-06T20:41:21.323Z,81.88
2023-03-06T20:43:49.267Z,82.66
2023-03-06T20:46:19.910Z,81.63
2023-03-06T20:48:49.066Z,81.20
2023-03-06T20:51:24.332Z,81.79
2023-03-06T20:53:55.333Z,82.32
2023-03-06T20:56:25.595Z,82.89
2023-03-06T20:58:53.577Z,83.38
2023-03-06T21:01:22.963Z,82.87
2023-03-06T21:03:50.560Z,82.29
2023-03-06T21:06:18.617Z,82.49
2023-03-06T21:08:46.117Z,82.66
2023-03-06T21:11:13.565Z,83.29
2023-03-06T21:13:41.062Z,82.78
2023-03-06T21:16:11.423Z,82.93
2023-03-06T21:18:39.860Z,83.02
2023-03-06T21:21:12.546Z,83.05
2023-03-06T21:23:40.015Z,83.11
2023-03-06T21:26:07.538Z,82.30
2023-03-06T21:28:34.680Z,81.74
2023-03-06T21:31:02.589Z,82.51
2023-03-06T21:33:30.071Z,82.08
2023-03-06T21:35:57.277Z,82.15
2023-03-06T21:38:24.553Z,82.20
2023-03-06T21:40:52.584Z,82.41
2023-03-06T21:43:19.976Z,82.35
2023-03-06T21:45:48.787Z,82.84
2023-03-06T21:48:16.348Z,82.90
2023-03-06T21:50:43.509Z,82.36
2023-03-06T21:53:10.635Z,82.97
2023-03-06T21:55:40.405Z,83.58
2023-03-06T21:58:07.936Z,83.10
2023-03-06T22:00:36.512Z,82.52
2023-03-06T22:03:04.742Z,82.52
2023-03-06T22:05:32.081Z,83.02
2023-03-06T22:07:59.484Z,83.26
2023-03-06T22:10:26.902Z,83.21
2023-03-06T22:12:54.066Z,82.47
2023-03-06T22:15:21.900Z,82.73
2023-03-06T22:17:49.549Z,82.98
2023-03-06T22:20:16.950Z,82.46
2023-03-06T22:22:44.137Z,82.59
2023-03-06T22:25:11.986Z,82.63
2023-03-06T22:27:39.137Z,83.04
2023-03-06T22:30:06.982Z,83.34
2023-03-06T22:32:34.869Z,83.59
2023-03-06T22:35:02.076Z,83.45
2023-03-06T22:37:29.322Z,83.60
2023-03-06T22:39:56.679Z,83.59
2023-03-06T22:42:23.859Z,84.06
2023-03-06T22:44:51.150Z,84.65
2023-03-06T22:47:18.602Z,83.36
2023-03-06T22:49:45.726Z,82.71
2023-03-06T22:52:15.145Z,83.45
2023-03-06T22:54:42.721Z,83.62
2023-03-06T22:57:09.845Z,82.92
2023-03-06T22:59:37.009Z,83.15
2023-03-06T23:02:04.563Z,83.52
2023-03-06T23:04:31.812Z,82.85
2023-03-06T23:06:59.020Z,83.14
2023-03-06T23:09:26.853Z,82.92
2023-03-06T23:12:12.744Z,83.67
2023-03-06T23:14:58.446Z,84.61
2023-03-06T23:17:43.986Z,84.47
2023-03-06T23:20:29.895Z,84.07
2023-03-06T23:23:15.492Z,84.22
2023-03-06T23:25:43.553Z,83.87
2023-03-06T23:28:11.919Z,84.27
2023-03-06T23:30:39.933Z,84.66
2023-03-06T23:33:07.647Z,84.42
2023-03-06T23:35:36.550Z,84.05
2023-03-06T23:38:03.728Z,84.04
2023-03-06T23:40:31.585Z,84.12
2023-03-06T23:42:59.037Z,84.15
2023-03-06T23:45:27.387Z,84.34
2023-03-06T23:47:54.691Z,84.62
2023-03-06T23:50:23.099Z,84.49
2023-03-06T23:52:54.272Z,84.37
2023-03-06T23:55:21.755Z,84.76
2023-03-06T23:57:48.863Z,85.50
